createdAt,value
2017-05-13T00:00:12.891Z,16.56
2017-05-13T00:01:12.931Z,16.58
2017-05-13T00:02:13.279Z,16.59
2017-05-13T00:03:13.321Z,16.67
2017-05-13T00:04:13.362Z,16.58
2017-05-13T00:05:13.393Z,16.56
2017-05-13T00:06:13.125Z,16.58
2017-05-13T00:07:13.707Z,16.58
2017-05-13T00:08:13.218Z,16.67
2017-05-13T00:09:13.557Z,16.65
2017-05-13T00:10:13.287Z,16.62
2017-05-13T00:11:13.328Z,16.55
2017-05-13T00:12:13.368Z,16.55
2017-05-13T00:13:13.403Z,16.55
2017-05-13T00:14:13.759Z,16.58
2017-05-13T00:15:13.483Z,16.59
2017-05-13T00:16:13.524Z,16.59
2017-05-13T00:17:13.561Z,16.63
2017-05-13T00:18:13.609Z,16.6
2017-05-13T00:19:13.638Z,16.59
2017-05-13T00:20:13.676Z,16.6
2017-05-13T00:21:13.722Z,16.55
2017-05-13T00:22:13.791Z,16.59
2017-05-13T00:23:13.797Z,16.59
2017-05-13T00:24:13.835Z,16.68
2017-05-13T00:25:14.181Z,16.58
2017-05-13T00:26:13.914Z,16.56
2017-05-13T00:27:13.955Z,16.62
2017-05-13T00:28:13.990Z,16.55
2017-05-13T00:29:14.037Z,16.55
2017-05-13T00:30:14.375Z,16.59
2017-05-13T00:31:14.110Z,16.59
2017-05-13T00:32:14.463Z,16.6
2017-05-13T00:33:14.186Z,16.62
2017-05-13T00:34:14.227Z,16.6
2017-05-13T00:35:14.269Z,16.58
2017-05-13T00:36:14.612Z,16.6
2017-05-13T00:37:14.968Z,16.59
2017-05-13T00:38:14.387Z,16.59
2017-05-13T00:39:14.430Z,16.68
2017-05-13T00:40:14.464Z,16.56
2017-05-13T00:41:14.814Z,16.52
2017-05-13T00:42:14.550Z,16.6
2017-05-13T00:43:14.579Z,16.58
2017-05-13T00:44:14.927Z,16.63
2017-05-13T00:45:14.963Z,16.58
2017-05-13T00:46:14.695Z,16.6
2017-05-13T00:47:14.739Z,16.58
2017-05-13T00:48:14.775Z,16.62
2017-05-13T00:49:14.814Z,16.56
2017-05-13T00:50:15.165Z,16.58
2017-05-13T00:51:14.889Z,16.6
2017-05-13T00:52:15.241Z,16.58
2017-05-13T00:53:14.974Z,16.56
2017-05-13T00:54:15.324Z,16.58
2017-05-13T00:55:15.357Z,16.63
2017-05-13T00:56:15.093Z,16.56
2017-05-13T00:57:15.132Z,16.5
2017-05-13T00:58:15.782Z,16.55
2017-05-13T00:59:15.211Z,16.58
2017-05-13T01:00:15.250Z,16.56
2017-05-13T01:01:15.290Z,16.58
2017-05-13T01:02:15.334Z,16.55
2017-05-13T01:03:15.986Z,16.56
2017-05-13T01:04:15.723Z,16.59
2017-05-13T01:05:15.445Z,16.58
2017-05-13T01:06:15.484Z,16.53
2017-05-13T01:07:15.825Z,16.55
2017-05-13T01:08:15.567Z,16.48
2017-05-13T01:09:15.910Z,16.52
2017-05-13T01:10:15.944Z,16.56
2017-05-13T01:11:16.290Z,16.44
2017-05-13T01:12:16.023Z,16.49
2017-05-13T01:13:16.069Z,16.42
2017-05-13T01:14:15.796Z,16.41
2017-05-13T01:15:16.143Z,16.31
2017-05-13T01:16:15.878Z,16.38
2017-05-13T01:17:15.911Z,16.26
2017-05-13T01:18:16.270Z,16.3
2017-05-13T01:19:15.994Z,16.33
2017-05-13T01:20:16.342Z,16.3
2017-05-13T01:21:16.379Z,16.26
2017-05-13T01:22:16.416Z,16.27
2017-05-13T01:23:16.148Z,16.16
2017-05-13T01:24:16.190Z,16.23
2017-05-13T01:25:16.224Z,16.22
2017-05-13T01:26:16.579Z,16.14
2017-05-13T01:27:16.615Z,16.12
2017-05-13T01:28:16.663Z,16.16
2017-05-13T01:29:16.386Z,16.23
2017-05-13T01:30:16.426Z,16.2
2017-05-13T01:31:16.763Z,16.15
2017-05-13T01:32:16.812Z,16.18
2017-05-13T01:33:16.887Z,16.09
2017-05-13T01:34:16.889Z,16.2
2017-05-13T01:35:16.613Z,16.09
2017-05-13T01:36:16.659Z,16.23
2017-05-13T01:37:17.005Z,16.18
2017-05-13T01:38:17.044Z,16.22
2017-05-13T01:39:16.778Z,16.15
2017-05-13T01:40:17.132Z,16.16
2017-05-13T01:41:16.854Z,16.26
2017-05-13T01:42:17.514Z,16.22
2017-05-13T01:43:16.928Z,16.2
2017-05-13T01:44:16.976Z,16.14
2017-05-13T01:45:17.024Z,16.25
2017-05-13T01:46:17.056Z,16.14
2017-05-13T01:47:17.100Z,16.16
2017-05-13T01:48:17.122Z,16.16
2017-05-13T01:49:17.467Z,16.3
2017-05-13T01:50:17.507Z,16.26
2017-05-13T01:51:17.248Z,16.12
2017-05-13T01:52:17.280Z,16.18
2017-05-13T01:53:17.316Z,16.2
2017-05-13T01:54:17.357Z,16.18
2017-05-13T01:55:17.706Z,16.22
2017-05-13T01:56:17.436Z,16.25
2017-05-13T01:57:17.477Z,16.34
2017-05-13T01:58:17.821Z,16.34
2017-05-13T01:59:17.554Z,16.35
2017-05-13T02:00:17.909Z,16.35
2017-05-13T02:01:17.635Z,16.33
2017-05-13T02:02:17.670Z,16.41
2017-05-13T02:03:17.708Z,16.35
2017-05-13T02:04:18.383Z,16.33
2017-05-13T02:05:17.785Z,16.31
2017-05-13T02:06:17.823Z,16.23
2017-05-13T02:07:17.871Z,16.23
2017-05-13T02:08:17.900Z,16.37
2017-05-13T02:09:18.255Z,16.23
2017-05-13T02:10:18.289Z,16.25
2017-05-13T02:11:18.023Z,16.31
2017-05-13T02:12:18.061Z,16.27
2017-05-13T02:13:18.713Z,16.18
2017-05-13T02:14:18.137Z,16.18
2017-05-13T02:15:18.183Z,16.15
2017-05-13T02:16:18.214Z,16.12
2017-05-13T02:17:18.260Z,16.14
2017-05-13T02:18:18.296Z,16.11
2017-05-13T02:19:18.333Z,16.09
2017-05-13T02:20:18.372Z,16.14
2017-05-13T02:21:18.413Z,16.12
2017-05-13T02:22:18.768Z,16.12
2017-05-13T02:23:19.123Z,16.22
2017-05-13T02:24:18.844Z,16.16
2017-05-13T02:25:18.565Z,16.07
2017-05-13T02:26:18.611Z,16.18
2017-05-13T02:27:18.644Z,16.06
2017-05-13T02:28:18.685Z,16.07
2017-05-13T02:29:18.727Z,16.07
2017-05-13T02:30:19.074Z,16.2
2017-05-13T02:31:19.107Z,16.18
2017-05-13T02:32:18.841Z,16.09
2017-05-13T02:33:19.196Z,16.16
2017-05-13T02:34:18.919Z,16.03
2017-05-13T02:35:18.959Z,16.03
2017-05-13T02:36:19.014Z,16.06
2017-05-13T02:37:19.348Z,16.06
2017-05-13T02:38:19.095Z,16.07
2017-05-13T02:39:19.118Z,16.04
2017-05-13T02:40:19.152Z,16.14
2017-05-13T02:41:19.509Z,16.09
2017-05-13T02:42:19.534Z,16.04
2017-05-13T02:43:19.582Z,16.11
2017-05-13T02:44:19.628Z,16.11
2017-05-13T02:45:19.347Z,16.07
2017-05-13T02:46:19.697Z,16.12
2017-05-13T02:47:19.732Z,16.06
2017-05-13T02:48:19.463Z,16.11
2017-05-13T02:49:19.817Z,16.09
2017-05-13T02:50:19.852Z,16.16
2017-05-13T02:51:19.893Z,16.11
2017-05-13T02:52:19.933Z,16.03
2017-05-13T02:53:19.683Z,16.06
2017-05-13T02:54:19.696Z,16.03
2017-05-13T02:55:19.740Z,16.04
2017-05-13T02:56:19.777Z,16.03
2017-05-13T02:57:19.846Z,16.06
2017-05-13T02:58:19.856Z,16.06
2017-05-13T02:59:20.514Z,16.09
2017-05-13T03:00:20.237Z,16.11
2017-05-13T03:01:20.282Z,16.04
2017-05-13T03:02:20.010Z,16.11
2017-05-13T03:03:20.046Z,16.07
2017-05-13T03:04:20.400Z,16.07
2017-05-13T03:05:20.435Z,16.06
2017-05-13T03:06:20.479Z,16.01
2017-05-13T03:07:20.206Z,16
2017-05-13T03:08:20.241Z,16.06
2017-05-13T03:09:20.594Z,16.11
2017-05-13T03:10:20.629Z,16.06
2017-05-13T03:11:20.370Z,15.99
2017-05-13T03:12:20.407Z,15.96
2017-05-13T03:13:20.747Z,16.06
2017-05-13T03:14:20.794Z,16.09
2017-05-13T03:15:20.821Z,16.06
2017-05-13T03:16:20.566Z,16.11
2017-05-13T03:17:20.594Z,15.93
2017-05-13T03:18:20.637Z,15.94
2017-05-13T03:19:20.679Z,16.03
2017-05-13T03:20:21.026Z,16.01
2017-05-13T03:21:20.769Z,16.06
2017-05-13T03:22:21.103Z,15.93
2017-05-13T03:23:20.832Z,16
2017-05-13T03:24:21.178Z,15.97
2017-05-13T03:25:21.217Z,15.99
2017-05-13T03:26:20.948Z,15.84
2017-05-13T03:27:21.606Z,15.94
2017-05-13T03:28:21.024Z,15.94
2017-05-13T03:29:21.681Z,16
2017-05-13T03:30:21.102Z,15.94
2017-05-13T03:31:21.449Z,15.99
2017-05-13T03:32:21.180Z,15.96
2017-05-13T03:33:21.531Z,15.97
2017-05-13T03:34:21.251Z,15.99
2017-05-13T03:35:21.608Z,15.99
2017-05-13T03:36:21.342Z,15.93
2017-05-13T03:37:21.682Z,15.92
2017-05-13T03:38:21.724Z,15.96
2017-05-13T03:39:22.074Z,15.84
2017-05-13T03:40:21.511Z,15.94
2017-05-13T03:41:21.528Z,15.99
2017-05-13T03:42:21.894Z,15.85
2017-05-13T03:43:21.913Z,15.96
2017-05-13T03:44:21.646Z,16.01
2017-05-13T03:45:21.687Z,15.93
2017-05-13T03:46:22.033Z,16
2017-05-13T03:47:21.764Z,16.09
2017-05-13T03:48:21.823Z,16
2017-05-13T03:49:21.884Z,15.93
2017-05-13T03:50:21.883Z,15.99
2017-05-13T03:51:22.225Z,15.96
2017-05-13T03:52:21.957Z,15.93
2017-05-13T03:53:21.994Z,16.07
2017-05-13T03:54:22.037Z,15.99
2017-05-13T03:55:22.076Z,16.04
2017-05-13T03:56:22.109Z,15.97
2017-05-13T03:57:22.159Z,16.07
2017-05-13T03:58:22.187Z,16.01
2017-05-13T03:59:22.539Z,15.96
2017-05-13T04:00:22.583Z,15.93
2017-05-13T04:01:22.618Z,15.96
2017-05-13T04:02:22.656Z,16.06
2017-05-13T04:03:22.426Z,16.07
2017-05-13T04:04:22.728Z,15.93
2017-05-13T04:05:22.462Z,15.88
2017-05-13T04:06:22.502Z,16.01
2017-05-13T04:07:22.862Z,16.01
2017-05-13T04:08:22.891Z,15.93
2017-05-13T04:09:23.249Z,15.93
2017-05-13T04:10:22.963Z,15.89
2017-05-13T04:11:22.702Z,15.93
2017-05-13T04:12:23.348Z,16.01
2017-05-13T04:13:23.084Z,16
2017-05-13T04:14:23.119Z,16.07
2017-05-13T04:15:22.875Z,15.99
2017-05-13T04:16:23.205Z,15.97
2017-05-13T04:17:22.931Z,15.92
2017-05-13T04:18:22.969Z,15.93
2017-05-13T04:19:23.361Z,15.84
2017-05-13T04:20:23.047Z,15.85
2017-05-13T04:21:23.391Z,15.86
2017-05-13T04:22:23.126Z,15.92
2017-05-13T04:23:23.165Z,15.78
2017-05-13T04:24:23.543Z,15.86
2017-05-13T04:25:23.244Z,15.84
2017-05-13T04:26:23.277Z,15.82
2017-05-13T04:27:23.626Z,15.85
2017-05-13T04:28:23.358Z,15.88
2017-05-13T04:29:23.711Z,15.88
2017-05-13T04:30:23.742Z,15.89
2017-05-13T04:31:24.085Z,15.84
2017-05-13T04:32:23.545Z,15.96
2017-05-13T04:33:23.886Z,15.96
2017-05-13T04:34:23.598Z,15.96
2017-05-13T04:35:23.626Z,15.86
2017-05-13T04:36:23.676Z,15.85
2017-05-13T04:37:24.014Z,15.97
2017-05-13T04:38:23.751Z,15.99
2017-05-13T04:39:23.789Z,15.94
2017-05-13T04:40:23.824Z,15.84
2017-05-13T04:41:23.865Z,15.89
2017-05-13T04:42:24.211Z,15.92
2017-05-13T04:43:23.941Z,15.88
2017-05-13T04:44:24.597Z,15.84
2017-05-13T04:45:24.020Z,15.92
2017-05-13T04:46:24.056Z,15.92
2017-05-13T04:47:24.714Z,15.96
2017-05-13T04:48:24.138Z,15.93
2017-05-13T04:49:24.503Z,15.97
2017-05-13T04:50:24.243Z,16.09
2017-05-13T04:51:24.873Z,15.99
2017-05-13T04:52:24.600Z,15.96
2017-05-13T04:53:24.644Z,16
2017-05-13T04:54:24.680Z,15.99
2017-05-13T04:55:24.419Z,16.04
2017-05-13T04:56:24.456Z,15.97
2017-05-13T04:57:24.490Z,15.96
2017-05-13T04:58:24.525Z,15.96
2017-05-13T04:59:25.181Z,16.06
2017-05-13T05:00:24.910Z,16
2017-05-13T05:01:24.946Z,15.96
2017-05-13T05:02:24.683Z,16.07
2017-05-13T05:03:24.724Z,16.07
2017-05-13T05:04:24.761Z,16.07
2017-05-13T05:05:24.799Z,15.99
2017-05-13T05:06:24.841Z,16.01
2017-05-13T05:07:25.187Z,16.07
2017-05-13T05:08:24.922Z,16.15
2017-05-13T05:09:24.981Z,16.04
2017-05-13T05:10:25.297Z,16.04
2017-05-13T05:11:25.032Z,16.03
2017-05-13T05:12:25.074Z,16.04
2017-05-13T05:13:25.110Z,16.09
2017-05-13T05:14:25.769Z,16.14
2017-05-13T05:15:25.184Z,16.22
2017-05-13T05:16:25.536Z,16.22
2017-05-13T05:17:25.265Z,16.12
2017-05-13T05:18:25.307Z,16.18
2017-05-13T05:19:25.341Z,16.22
2017-05-13T05:20:25.385Z,16.25
2017-05-13T05:21:25.424Z,16.16
2017-05-13T05:22:25.820Z,16.3
2017-05-13T05:23:25.808Z,16.34
2017-05-13T05:24:25.548Z,16.33
2017-05-13T05:25:25.584Z,16.33
2017-05-13T05:26:25.622Z,16.27
2017-05-13T05:27:25.654Z,16.38
2017-05-13T05:28:25.744Z,16.45
2017-05-13T05:29:25.731Z,16.53
2017-05-13T05:30:26.079Z,16.52
2017-05-13T05:31:26.469Z,16.55
2017-05-13T05:32:25.857Z,16.59
2017-05-13T05:33:25.918Z,16.58
2017-05-13T05:34:26.552Z,16.6
2017-05-13T05:35:26.279Z,16.56
2017-05-13T05:36:26.010Z,16.7
2017-05-13T05:37:26.057Z,16.7
2017-05-13T05:38:26.087Z,16.74
2017-05-13T05:39:26.457Z,16.83
2017-05-13T05:40:26.173Z,16.75
2017-05-13T05:41:26.235Z,16.9
2017-05-13T05:42:26.247Z,16.85
2017-05-13T05:43:26.593Z,16.9
2017-05-13T05:44:26.327Z,16.96
2017-05-13T05:45:26.365Z,17
2017-05-13T05:46:27.021Z,17.07
2017-05-13T05:47:26.446Z,17.2
2017-05-13T05:48:26.484Z,17.22
2017-05-13T05:49:26.527Z,17.35
2017-05-13T05:50:26.558Z,17.46
2017-05-13T05:51:27.223Z,17.41
2017-05-13T05:52:26.664Z,17.53
2017-05-13T05:53:26.698Z,17.55
2017-05-13T05:54:26.724Z,17.69
2017-05-13T05:55:26.765Z,17.69
2017-05-13T05:56:26.808Z,17.71
2017-05-13T05:57:26.873Z,17.7
2017-05-13T05:58:26.885Z,17.81
2017-05-13T05:59:27.234Z,17.87
2017-05-13T06:00:26.967Z,17.79
2017-05-13T06:01:27.002Z,17.81
2017-05-13T06:02:27.359Z,17.85
2017-05-13T06:03:27.700Z,17.89
2017-05-13T06:04:27.167Z,17.84
2017-05-13T06:05:27.189Z,17.82
2017-05-13T06:06:27.274Z,17.85
2017-05-13T06:07:27.242Z,17.88
2017-05-13T06:08:27.602Z,17.87
2017-05-13T06:09:27.635Z,17.88
2017-05-13T06:10:27.675Z,17.89
2017-05-13T06:11:27.406Z,17.88
2017-05-13T06:12:27.470Z,17.87
2017-05-13T06:13:27.790Z,17.78
2017-05-13T06:14:27.530Z,17.81
2017-05-13T06:15:27.567Z,17.87
2017-05-13T06:16:27.935Z,17.78
2017-05-13T06:17:27.952Z,17.85
2017-05-13T06:18:27.992Z,17.82
2017-05-13T06:19:27.734Z,17.87
2017-05-13T06:20:27.767Z,17.94
2017-05-13T06:21:27.810Z,17.94
2017-05-13T06:22:28.460Z,18.03
2017-05-13T06:23:28.220Z,18
2017-05-13T06:24:28.237Z,18.02
2017-05-13T06:25:28.273Z,18.09
2017-05-13T06:26:28.028Z,18.15
2017-05-13T06:27:28.044Z,18.24
2017-05-13T06:28:28.087Z,18.43
2017-05-13T06:29:28.442Z,18.52
2017-05-13T06:30:28.171Z,18.67
2017-05-13T06:31:28.224Z,18.76
2017-05-13T06:32:28.566Z,18.82
2017-05-13T06:33:28.291Z,18.82
2017-05-13T06:34:28.338Z,18.98
2017-05-13T06:35:28.381Z,19.17
2017-05-13T06:36:28.720Z,19.31
2017-05-13T06:37:28.772Z,19.33
2017-05-13T06:38:28.493Z,19.4
2017-05-13T06:39:28.543Z,19.61
2017-05-13T06:40:28.581Z,19.66
2017-05-13T06:41:28.926Z,19.75
2017-05-13T06:42:28.988Z,19.86
2017-05-13T06:43:29.311Z,19.93
2017-05-13T06:44:29.050Z,20.05
2017-05-13T06:45:28.784Z,20
2017-05-13T06:46:28.830Z,20.12
2017-05-13T06:47:28.869Z,20.05
2017-05-13T06:48:29.215Z,20.18
2017-05-13T06:49:29.256Z,20.21
2017-05-13T06:50:29.606Z,20.25
2017-05-13T06:51:29.037Z,20.28
2017-05-13T06:52:29.383Z,20.41
2017-05-13T06:53:29.734Z,20.53
2017-05-13T06:54:29.176Z,20.54
2017-05-13T06:55:29.203Z,20.71
2017-05-13T06:56:29.248Z,20.9
2017-05-13T06:57:29.598Z,21.04
2017-05-13T06:58:29.332Z,21.14
2017-05-13T06:59:29.369Z,21.23
2017-05-13T07:00:29.416Z,21.38
2017-05-13T07:01:29.454Z,21.46
2017-05-13T07:02:29.504Z,21.46
2017-05-13T07:03:30.167Z,21.44
2017-05-13T07:04:29.585Z,21.35
2017-05-13T07:05:29.933Z,21.38
2017-05-13T07:06:29.669Z,21.36
2017-05-13T07:07:30.022Z,21.23
2017-05-13T07:08:29.751Z,21.11
2017-05-13T07:09:30.100Z,21.09
2017-05-13T07:10:29.837Z,21.11
2017-05-13T07:11:29.886Z,20.98
2017-05-13T07:12:30.227Z,20.96
2017-05-13T07:13:30.010Z,20.89
2017-05-13T07:14:30.003Z,20.91
2017-05-13T07:15:30.049Z,20.86
2017-05-13T07:16:30.095Z,20.83
2017-05-13T07:17:30.130Z,20.76
2017-05-13T07:18:30.172Z,20.77
2017-05-13T07:19:30.227Z,20.71
2017-05-13T07:20:30.275Z,20.66
2017-05-13T07:21:30.302Z,20.69
2017-05-13T07:22:30.650Z,20.77
2017-05-13T07:23:30.386Z,20.76
2017-05-13T07:24:30.430Z,20.69
2017-05-13T07:25:30.771Z,20.65
2017-05-13T07:26:30.512Z,20.74
2017-05-13T07:27:31.167Z,20.76
2017-05-13T07:28:30.607Z,20.76
2017-05-13T07:29:30.638Z,20.76
2017-05-13T07:30:31.006Z,20.79
2017-05-13T07:31:30.716Z,20.74
2017-05-13T07:32:30.764Z,20.79
2017-05-13T07:33:30.801Z,20.74
2017-05-13T07:34:30.845Z,20.74
2017-05-13T07:35:30.902Z,20.69
2017-05-13T07:36:30.930Z,20.74
2017-05-13T07:37:30.970Z,20.76
2017-05-13T07:38:31.014Z,20.76
2017-05-13T07:39:31.055Z,20.76
2017-05-13T07:40:31.120Z,20.76
2017-05-13T07:41:31.142Z,20.79
2017-05-13T07:42:31.488Z,20.76
2017-05-13T07:43:31.553Z,20.83
2017-05-13T07:44:31.574Z,20.81
2017-05-13T07:45:31.310Z,20.84
2017-05-13T07:46:31.350Z,20.9
2017-05-13T07:47:31.707Z,20.96
2017-05-13T07:48:31.742Z,20.96
2017-05-13T07:49:31.476Z,21.05
2017-05-13T07:50:31.820Z,21.09
2017-05-13T07:51:31.564Z,21.24
2017-05-13T07:52:31.602Z,21.29
2017-05-13T07:53:31.654Z,21.42
2017-05-13T07:54:32.001Z,21.34
2017-05-13T07:55:32.039Z,21.39
2017-05-13T07:56:31.772Z,21.36
2017-05-13T07:57:31.810Z,21.46
2017-05-13T07:58:31.854Z,21.36
2017-05-13T07:59:31.913Z,21.35
2017-05-13T08:00:31.980Z,21.42
2017-05-13T08:01:31.988Z,21.48
2017-05-13T08:02:32.026Z,21.5
2017-05-13T08:03:32.065Z,21.6
2017-05-13T08:04:32.424Z,21.56
2017-05-13T08:05:32.158Z,21.66
2017-05-13T08:06:32.203Z,21.71
2017-05-13T08:07:32.545Z,21.79
2017-05-13T08:08:32.280Z,21.83
2017-05-13T08:09:32.632Z,22.12
2017-05-13T08:10:32.681Z,22.2
2017-05-13T08:11:32.420Z,22.41
2017-05-13T08:12:32.451Z,22.67
2017-05-13T08:13:32.820Z,22.86
2017-05-13T08:14:32.541Z,23.2
2017-05-13T08:15:32.585Z,23.38
2017-05-13T08:16:32.942Z,23.67
2017-05-13T08:17:32.676Z,23.85
2017-05-13T08:18:32.722Z,24.04
2017-05-13T08:19:33.067Z,24.32
2017-05-13T08:20:32.810Z,24.47
2017-05-13T08:21:32.854Z,24.73
2017-05-13T08:22:33.209Z,24.92
2017-05-13T08:23:32.952Z,25.27
2017-05-13T08:24:32.990Z,25.53
2017-05-13T08:25:33.350Z,25.93
2017-05-13T08:26:33.082Z,26.22
2017-05-13T08:27:33.167Z,26.57
2017-05-13T08:28:33.176Z,26.99
2017-05-13T08:29:33.220Z,27.29
2017-05-13T08:30:33.572Z,27.43
2017-05-13T08:31:33.620Z,27.59
2017-05-13T08:32:33.366Z,27.82
2017-05-13T08:33:33.718Z,27.98
2017-05-13T08:34:33.462Z,28.06
2017-05-13T08:35:33.817Z,28.13
2017-05-13T08:36:33.556Z,28.21
2017-05-13T08:37:33.915Z,28.26
2017-05-13T08:38:33.646Z,28.32
2017-05-13T08:39:33.701Z,28.47
2017-05-13T08:40:33.745Z,28.47
2017-05-13T08:41:34.114Z,28.35
2017-05-13T08:42:34.147Z,28.28
2017-05-13T08:43:33.894Z,28.11
2017-05-13T08:44:34.248Z,28.11
2017-05-13T08:45:33.983Z,27.92
2017-05-13T08:46:34.346Z,27.69
2017-05-13T08:47:34.081Z,27.42
2017-05-13T08:48:34.129Z,27.33
2017-05-13T08:49:34.483Z,27.11
2017-05-13T08:50:34.534Z,26.95
